ANA154 RJSS-RJBD
Flight info
| Callsign | ANA154 |
|---|---|
| Flight time | 1h 19m |
| Altitude | 32000 |
| Route | RJSS/27 STEED4 RIKYU Y882 GYODA Y88 NAKTU Y12 RAYJO RAYJOS RJBD/33 |
| Aircraft | B738/M-V/N |
Departure
| Time | 2026-04-20 22:36 |
|---|---|
| Airport | Sendai Airport (RJSS) |
Arrival
| Time | 2026-04-20 23:56 |
|---|---|
| Airport | Nanki Shirahama Airport (RJBD) |
| Time | Latitude | Longitude | Altitude | Speed | Heading |
|---|---|---|---|---|---|
| 2026-04-20 22:16 | 38.13844 | 140.92648 | 14 ft | 0 kts | 173° |
| 2026-04-20 22:29 | 38.13851 | 140.92647 | 14 ft | 2 kts | 172° |
| 2026-04-20 22:29 | 38.13866 | 140.92644 | 14 ft | 2 kts | 173° |
| 2026-04-20 22:30 | 38.13882 | 140.92642 | 14 ft | 2 kts | 173° |
| 2026-04-20 22:30 | 38.13897 | 140.92639 | 14 ft | 2 kts | 173° |
| 2026-04-20 22:30 | 38.13912 | 140.92636 | 14 ft | 2 kts | 173° |
| 2026-04-20 22:30 | 38.13926 | 140.92635 | 14 ft | 1 kts | 173° |
| 2026-04-20 22:31 | 38.13938 | 140.92631 | 14 ft | 2 kts | 156° |
| 2026-04-20 22:31 | 38.13951 | 140.92618 | 14 ft | 2 kts | 123° |
| 2026-04-20 22:31 | 38.13956 | 140.92600 | 13 ft | 2 kts | 92° |
| 2026-04-20 22:31 | 38.13956 | 140.92589 | 13 ft | 1 kts | 78° |
| 2026-04-20 22:32 | 38.13955 | 140.92586 | 13 ft | 0 kts | 82° |
| 2026-04-20 22:33 | 38.13956 | 140.92590 | 13 ft | 0 kts | 82° |
| 2026-04-20 22:34 | 38.13958 | 140.92615 | 14 ft | 10 kts | 82° |
| 2026-04-20 22:34 | 38.13994 | 140.92795 | 15 ft | 28 kts | 72° |
| 2026-04-20 22:34 | 38.14032 | 140.93027 | 15 ft | 27 kts | 82° |
| 2026-04-20 22:34 | 38.14072 | 140.93243 | 15 ft | 25 kts | 45° |
| 2026-04-20 22:35 | 38.14210 | 140.93225 | 13 ft | 23 kts | 296° |
| 2026-04-20 22:35 | 38.14211 | 140.93112 | 14 ft | 0 kts | 264° |
| 2026-04-20 22:35 | 38.14211 | 140.93108 | 14 ft | 8 kts | 264° |
| 2026-04-20 22:36 | 38.14172 | 140.92757 | 15 ft | 76 kts | 262° |
| 2026-04-20 22:36 | 38.14087 | 140.91923 | 12 ft | 133 kts | 262° |
| 2026-04-20 22:36 | 38.13957 | 140.90666 | 110 ft | 170 kts | 261° |
| 2026-04-20 22:36 | 38.13847 | 140.89368 | 1010 ft | 152 kts | 263° |
| 2026-04-20 22:37 | 38.13661 | 140.88187 | 1565 ft | 157 kts | 239° |
| 2026-04-20 22:37 | 38.12885 | 140.87361 | 2049 ft | 167 kts | 207° |
| 2026-04-20 22:37 | 38.11803 | 140.87027 | 2527 ft | 182 kts | 190° |
| 2026-04-20 22:37 | 38.10572 | 140.87265 | 2960 ft | 205 kts | 164° |
| 2026-04-20 22:38 | 38.09436 | 140.88264 | 3367 ft | 232 kts | 136° |
| 2026-04-20 22:38 | 38.08692 | 140.89957 | 3816 ft | 253 kts | 116° |
| 2026-04-20 22:38 | 38.08156 | 140.91960 | 4250 ft | 269 kts | 112° |
| 2026-04-20 22:38 | 38.07603 | 140.94118 | 4682 ft | 283 kts | 113° |
| 2026-04-20 22:39 | 38.06952 | 140.96284 | 5212 ft | 291 kts | 120° |
| 2026-04-20 22:39 | 38.05863 | 140.98268 | 5752 ft | 289 kts | 145° |
| 2026-04-20 22:39 | 38.04263 | 140.99434 | 6417 ft | 276 kts | 171° |
| 2026-04-20 22:39 | 38.02552 | 140.99788 | 7055 ft | 271 kts | 185° |
| 2026-04-20 22:40 | 38.00798 | 140.99797 | 7768 ft | 270 kts | 188° |
| 2026-04-20 22:40 | 37.99027 | 140.99753 | 8495 ft | 271 kts | 187° |
| 2026-04-20 22:40 | 37.97262 | 140.99705 | 9157 ft | 274 kts | 187° |
| 2026-04-20 22:40 | 37.95473 | 140.99667 | 9795 ft | 277 kts | 187° |
| 2026-04-20 22:41 | 37.93687 | 140.99634 | 10446 ft | 280 kts | 187° |
| 2026-04-20 22:41 | 37.91745 | 140.99594 | 10803 ft | 295 kts | 186° |
| 2026-04-20 22:41 | 37.89653 | 140.99547 | 11204 ft | 309 kts | 186° |
| 2026-04-20 22:41 | 37.87599 | 140.99501 | 11511 ft | 324 kts | 186° |
| 2026-04-20 22:42 | 37.85480 | 140.99458 | 11811 ft | 338 kts | 186° |
| 2026-04-20 22:42 | 37.83304 | 140.99417 | 12339 ft | 344 kts | 185° |
| 2026-04-20 22:42 | 37.81027 | 140.99376 | 12935 ft | 349 kts | 186° |
| 2026-04-20 22:42 | 37.78798 | 140.99237 | 13704 ft | 346 kts | 189° |
| 2026-04-20 22:43 | 37.76648 | 140.98703 | 14316 ft | 344 kts | 202° |
| 2026-04-20 22:43 | 37.74622 | 140.97470 | 14946 ft | 343 kts | 215° |
| 2026-04-20 22:43 | 37.72903 | 140.95735 | 15672 ft | 341 kts | 225° |
| 2026-04-20 22:43 | 37.71409 | 140.93729 | 16364 ft | 341 kts | 231° |
| 2026-04-20 22:44 | 37.70178 | 140.91470 | 16933 ft | 344 kts | 241° |
| 2026-04-20 22:44 | 37.69243 | 140.88943 | 17588 ft | 346 kts | 246° |
| 2026-04-20 22:44 | 37.68446 | 140.86365 | 18152 ft | 349 kts | 248° |
| 2026-04-20 22:44 | 37.67665 | 140.83699 | 18800 ft | 350 kts | 248° |
| 2026-04-20 22:45 | 37.66895 | 140.81105 | 19535 ft | 347 kts | 249° |
| 2026-04-20 22:45 | 37.66095 | 140.78481 | 20232 ft | 346 kts | 248° |
| 2026-04-20 22:45 | 37.65292 | 140.75885 | 20796 ft | 347 kts | 249° |
| 2026-04-20 22:45 | 37.64482 | 140.73300 | 21399 ft | 347 kts | 250° |
| 2026-04-20 22:46 | 37.63665 | 140.70712 | 21978 ft | 347 kts | 250° |
| 2026-04-20 22:46 | 37.62830 | 140.68080 | 22588 ft | 346 kts | 249° |
| 2026-04-20 22:46 | 37.62018 | 140.65524 | 23147 ft | 345 kts | 250° |
| 2026-04-20 22:46 | 37.61196 | 140.62939 | 23709 ft | 345 kts | 250° |
| 2026-04-20 22:47 | 37.60372 | 140.60347 | 24123 ft | 348 kts | 250° |
| 2026-04-20 22:47 | 37.59547 | 140.57761 | 24524 ft | 351 kts | 251° |
| 2026-04-20 22:47 | 37.58717 | 140.55159 | 24971 ft | 352 kts | 251° |
| 2026-04-20 22:47 | 37.57882 | 140.52537 | 25451 ft | 352 kts | 250° |
| 2026-04-20 22:48 | 37.57059 | 140.49945 | 25832 ft | 355 kts | 250° |
| 2026-04-20 22:48 | 37.56210 | 140.47339 | 26333 ft | 355 kts | 250° |
| 2026-04-20 22:48 | 37.55217 | 140.44740 | 26758 ft | 358 kts | 247° |
| 2026-04-20 22:48 | 37.54086 | 140.42215 | 27150 ft | 361 kts | 244° |
| 2026-04-20 22:49 | 37.52903 | 140.39749 | 27461 ft | 364 kts | 244° |
| 2026-04-20 22:49 | 37.51671 | 140.37228 | 27858 ft | 365 kts | 244° |
| 2026-04-20 22:49 | 37.50448 | 140.34738 | 28250 ft | 366 kts | 244° |
| 2026-04-20 22:49 | 37.49221 | 140.32233 | 28570 ft | 369 kts | 243° |
| 2026-04-20 22:50 | 37.47980 | 140.29698 | 28906 ft | 372 kts | 244° |
| 2026-04-20 22:50 | 37.46734 | 140.27145 | 29436 ft | 370 kts | 245° |
| 2026-04-20 22:50 | 37.45499 | 140.24606 | 29744 ft | 373 kts | 245° |
| 2026-04-20 22:50 | 37.44248 | 140.22029 | 30175 ft | 373 kts | 244° |
| 2026-04-20 22:51 | 37.43024 | 140.19513 | 30709 ft | 370 kts | 244° |
| 2026-04-20 22:51 | 37.41787 | 140.16972 | 31215 ft | 368 kts | 244° |
| 2026-04-20 22:51 | 37.40576 | 140.14488 | 31718 ft | 365 kts | 244° |
| 2026-04-20 22:51 | 37.39365 | 140.11997 | 31843 ft | 366 kts | 244° |
| 2026-04-20 22:52 | 37.36949 | 140.07025 | 31845 ft | 361 kts | 245° |
| 2026-04-20 22:52 | 37.34542 | 140.02080 | 31850 ft | 360 kts | 245° |
| 2026-04-20 22:53 | 37.32011 | 139.97234 | 31850 ft | 366 kts | 239° |
| 2026-04-20 22:53 | 37.30397 | 139.95046 | 31856 ft | 379 kts | 232° |
| 2026-04-20 22:53 | 37.28457 | 139.93173 | 31853 ft | 388 kts | 224° |
| 2026-04-20 22:54 | 37.23798 | 139.90340 | 31853 ft | 404 kts | 212° |
| 2026-04-20 22:54 | 37.18784 | 139.88394 | 31862 ft | 418 kts | 208° |
| 2026-04-20 22:55 | 37.13637 | 139.86667 | 31851 ft | 415 kts | 207° |
| 2026-04-20 22:55 | 37.08411 | 139.84921 | 31848 ft | 418 kts | 207° |
| 2026-04-20 22:56 | 37.03209 | 139.83162 | 31850 ft | 418 kts | 208° |
| 2026-04-20 22:56 | 36.98043 | 139.81407 | 31847 ft | 415 kts | 208° |
| 2026-04-20 22:57 | 36.92875 | 139.79622 | 31871 ft | 418 kts | 208° |
| 2026-04-20 22:57 | 36.87684 | 139.77830 | 31854 ft | 420 kts | 207° |
| 2026-04-20 22:58 | 36.82564 | 139.76077 | 31873 ft | 415 kts | 208° |
| 2026-04-20 22:58 | 36.77350 | 139.74277 | 31865 ft | 420 kts | 207° |
| 2026-04-20 22:59 | 36.72184 | 139.72505 | 31862 ft | 420 kts | 208° |
| 2026-04-20 22:59 | 36.66984 | 139.70720 | 31877 ft | 421 kts | 208° |
| 2026-04-20 23:00 | 36.61766 | 139.68930 | 31876 ft | 423 kts | 207° |
| 2026-04-20 23:00 | 36.56537 | 139.67142 | 31865 ft | 423 kts | 208° |
| 2026-04-20 23:01 | 36.51327 | 139.65369 | 31873 ft | 419 kts | 207° |
| 2026-04-20 23:01 | 36.46191 | 139.63617 | 31868 ft | 422 kts | 208° |
| 2026-04-20 23:02 | 36.41202 | 139.61449 | 31856 ft | 406 kts | 217° |
| 2026-04-20 23:02 | 36.37074 | 139.57950 | 31855 ft | 386 kts | 231° |
| 2026-04-20 23:03 | 36.33591 | 139.53688 | 31851 ft | 382 kts | 235° |
| 2026-04-20 23:03 | 36.30275 | 139.49316 | 31866 ft | 377 kts | 235° |
| 2026-04-20 23:04 | 36.26971 | 139.44945 | 31851 ft | 385 kts | 235° |
| 2026-04-20 23:04 | 36.23614 | 139.40536 | 31838 ft | 384 kts | 234° |
| 2026-04-20 23:05 | 36.20263 | 139.36165 | 31848 ft | 382 kts | 234° |
| 2026-04-20 23:05 | 36.17077 | 139.31586 | 31855 ft | 378 kts | 240° |
| 2026-04-20 23:06 | 36.14667 | 139.26546 | 31865 ft | 370 kts | 248° |
| 2026-04-20 23:06 | 36.12595 | 139.21098 | 31858 ft | 369 kts | 250° |
| 2026-04-20 23:07 | 36.10580 | 139.15604 | 31884 ft | 369 kts | 249° |
| 2026-04-20 23:07 | 36.08611 | 139.10261 | 31857 ft | 368 kts | 249° |
| 2026-04-20 23:08 | 36.06581 | 139.04794 | 31879 ft | 368 kts | 249° |
| 2026-04-20 23:08 | 36.04885 | 139.00253 | 31871 ft | 369 kts | 250° |
| 2026-04-20 23:09 | 36.02898 | 138.94945 | 31873 ft | 369 kts | 250° |
| 2026-04-20 23:09 | 36.00900 | 138.89619 | 31884 ft | 368 kts | 250° |
| 2026-04-20 23:10 | 35.98920 | 138.84343 | 31874 ft | 370 kts | 249° |
| 2026-04-20 23:10 | 35.96925 | 138.79048 | 31871 ft | 369 kts | 249° |
| 2026-04-20 23:11 | 35.94928 | 138.73756 | 31879 ft | 370 kts | 249° |
| 2026-04-20 23:11 | 35.92948 | 138.68523 | 31880 ft | 369 kts | 250° |
| 2026-04-20 23:12 | 35.90935 | 138.63194 | 31879 ft | 370 kts | 249° |
| 2026-04-20 23:12 | 35.88940 | 138.57925 | 31878 ft | 370 kts | 250° |
| 2026-04-20 23:13 | 35.86930 | 138.52655 | 31886 ft | 367 kts | 249° |
| 2026-04-20 23:13 | 35.84927 | 138.47407 | 31886 ft | 367 kts | 250° |
| 2026-04-20 23:14 | 35.82770 | 138.41765 | 31896 ft | 368 kts | 249° |
| 2026-04-20 23:14 | 35.80712 | 138.36394 | 31901 ft | 368 kts | 250° |
| 2026-04-20 23:15 | 35.78598 | 138.30882 | 31912 ft | 367 kts | 249° |
| 2026-04-20 23:15 | 35.76501 | 138.25429 | 31918 ft | 367 kts | 249° |
| 2026-04-20 23:16 | 35.74407 | 138.19984 | 31920 ft | 369 kts | 249° |
| 2026-04-20 23:16 | 35.72297 | 138.14520 | 31918 ft | 368 kts | 249° |
| 2026-04-20 23:17 | 35.70205 | 138.09109 | 31914 ft | 367 kts | 249° |
| 2026-04-20 23:17 | 35.68132 | 138.03764 | 31907 ft | 366 kts | 249° |
| 2026-04-20 23:18 | 35.66089 | 137.98431 | 31912 ft | 365 kts | 250° |
| 2026-04-20 23:18 | 35.64142 | 137.93031 | 31921 ft | 365 kts | 250° |
| 2026-04-20 23:19 | 35.62217 | 137.87628 | 31918 ft | 366 kts | 251° |
| 2026-04-20 23:19 | 35.60272 | 137.82199 | 31930 ft | 366 kts | 251° |
| 2026-04-20 23:20 | 35.58263 | 137.76680 | 31925 ft | 366 kts | 250° |
| 2026-04-20 23:20 | 35.56237 | 137.71332 | 31924 ft | 364 kts | 249° |
| 2026-04-20 23:21 | 35.54149 | 137.65858 | 31933 ft | 368 kts | 250° |
| 2026-04-20 23:21 | 35.52087 | 137.60446 | 31926 ft | 366 kts | 250° |
| 2026-04-20 23:22 | 35.50048 | 137.55095 | 31934 ft | 368 kts | 249° |
| 2026-04-20 23:22 | 35.47841 | 137.49765 | 31929 ft | 372 kts | 244° |
| 2026-04-20 23:23 | 35.44539 | 137.45264 | 31927 ft | 387 kts | 227° |
| 2026-04-20 23:23 | 35.40189 | 137.41841 | 31929 ft | 401 kts | 220° |
| 2026-04-20 23:24 | 35.35539 | 137.38734 | 31930 ft | 398 kts | 218° |
| 2026-04-20 23:24 | 35.30875 | 137.35687 | 31942 ft | 396 kts | 219° |
| 2026-04-20 23:25 | 35.26246 | 137.32632 | 31939 ft | 403 kts | 219° |
| 2026-04-20 23:25 | 35.21582 | 137.29546 | 31933 ft | 401 kts | 218° |
| 2026-04-20 23:26 | 35.17005 | 137.26509 | 31941 ft | 401 kts | 218° |
| 2026-04-20 23:26 | 35.12460 | 137.23505 | 31939 ft | 398 kts | 218° |
| 2026-04-20 23:27 | 35.07876 | 137.20458 | 31931 ft | 402 kts | 218° |
| 2026-04-20 23:27 | 35.03314 | 137.17436 | 31942 ft | 406 kts | 219° |
| 2026-04-20 23:28 | 34.98732 | 137.14415 | 31947 ft | 403 kts | 218° |
| 2026-04-20 23:28 | 34.94097 | 137.11353 | 31949 ft | 404 kts | 218° |
| 2026-04-20 23:29 | 34.89399 | 137.08263 | 31958 ft | 400 kts | 218° |
| 2026-04-20 23:29 | 34.84852 | 137.05263 | 31952 ft | 406 kts | 218° |
| 2026-04-20 23:30 | 34.80420 | 137.02350 | 31955 ft | 404 kts | 218° |
| 2026-04-20 23:30 | 34.75849 | 136.99347 | 31949 ft | 406 kts | 218° |
| 2026-04-20 23:31 | 34.71282 | 136.96307 | 31961 ft | 402 kts | 220° |
| 2026-04-20 23:31 | 34.67088 | 136.92857 | 31959 ft | 396 kts | 225° |
| 2026-04-20 23:32 | 34.63076 | 136.89128 | 31957 ft | 396 kts | 226° |
| 2026-04-20 23:32 | 34.59082 | 136.85364 | 31960 ft | 396 kts | 227° |
| 2026-04-20 23:33 | 34.55068 | 136.81598 | 31958 ft | 397 kts | 226° |
| 2026-04-20 23:33 | 34.50959 | 136.77783 | 31959 ft | 398 kts | 226° |
| 2026-04-20 23:34 | 34.46904 | 136.74039 | 31955 ft | 395 kts | 225° |
| 2026-04-20 23:34 | 34.42832 | 136.70283 | 31958 ft | 402 kts | 225° |
| 2026-04-20 23:35 | 34.36633 | 136.64610 | 31634 ft | 380 kts | 225° |
| 2026-04-20 23:35 | 34.34605 | 136.62749 | 31048 ft | 386 kts | 226° |
| 2026-04-20 23:36 | 34.32594 | 136.60896 | 30237 ft | 388 kts | 225° |
| 2026-04-20 23:36 | 34.30568 | 136.59032 | 29384 ft | 387 kts | 225° |
| 2026-04-20 23:36 | 34.28579 | 136.57187 | 28635 ft | 390 kts | 225° |
| 2026-04-20 23:36 | 34.26619 | 136.55350 | 27624 ft | 394 kts | 225° |
| 2026-04-20 23:37 | 34.24677 | 136.53520 | 26755 ft | 393 kts | 226° |
| 2026-04-20 23:37 | 34.22655 | 136.51611 | 26111 ft | 405 kts | 226° |
| 2026-04-20 23:37 | 34.20620 | 136.49690 | 25465 ft | 408 kts | 226° |
| 2026-04-20 23:37 | 34.18554 | 136.47749 | 24838 ft | 407 kts | 225° |
| 2026-04-20 23:38 | 34.16520 | 136.45848 | 24183 ft | 404 kts | 225° |
| 2026-04-20 23:38 | 34.14466 | 136.43930 | 23506 ft | 401 kts | 225° |
| 2026-04-20 23:38 | 34.12469 | 136.42072 | 22745 ft | 394 kts | 225° |
| 2026-04-20 23:38 | 34.10479 | 136.40222 | 22110 ft | 384 kts | 225° |
| 2026-04-20 23:39 | 34.08525 | 136.38408 | 21422 ft | 377 kts | 225° |
| 2026-04-20 23:39 | 34.06578 | 136.36595 | 20518 ft | 373 kts | 226° |
| 2026-04-20 23:39 | 34.04659 | 136.34808 | 19667 ft | 371 kts | 225° |
| 2026-04-20 23:39 | 34.02683 | 136.32959 | 18433 ft | 377 kts | 224° |
| 2026-04-20 23:40 | 34.00720 | 136.31120 | 17666 ft | 370 kts | 224° |
| 2026-04-20 23:40 | 33.98888 | 136.29413 | 17193 ft | 363 kts | 224° |
| 2026-04-20 23:40 | 33.97007 | 136.27661 | 16571 ft | 362 kts | 224° |
| 2026-04-20 23:40 | 33.95113 | 136.25894 | 15937 ft | 361 kts | 223° |
| 2026-04-20 23:41 | 33.93206 | 136.24118 | 15283 ft | 360 kts | 223° |
| 2026-04-20 23:41 | 33.91303 | 136.22350 | 14604 ft | 360 kts | 222° |
| 2026-04-20 23:41 | 33.89417 | 136.20599 | 13934 ft | 352 kts | 222° |
| 2026-04-20 23:41 | 33.87568 | 136.18887 | 13362 ft | 350 kts | 221° |
| 2026-04-20 23:42 | 33.85791 | 136.17236 | 12774 ft | 349 kts | 221° |
| 2026-04-20 23:42 | 33.83968 | 136.15485 | 12215 ft | 344 kts | 225° |
| 2026-04-20 23:42 | 33.82442 | 136.13475 | 11395 ft | 338 kts | 237° |
| 2026-04-20 23:42 | 33.81359 | 136.11322 | 11114 ft | 320 kts | 243° |
| 2026-04-20 23:43 | 33.80363 | 136.09033 | 10915 ft | 301 kts | 244° |
| 2026-04-20 23:43 | 33.79494 | 136.06966 | 10802 ft | 303 kts | 245° |
| 2026-04-20 23:43 | 33.78607 | 136.04881 | 10672 ft | 300 kts | 244° |
| 2026-04-20 23:43 | 33.77745 | 136.02913 | 10544 ft | 284 kts | 243° |
| 2026-04-20 23:44 | 33.76899 | 136.01022 | 10411 ft | 269 kts | 243° |
| 2026-04-20 23:44 | 33.76107 | 135.99269 | 10297 ft | 257 kts | 243° |
| 2026-04-20 23:44 | 33.75333 | 135.97551 | 10139 ft | 250 kts | 243° |
| 2026-04-20 23:44 | 33.74565 | 135.95844 | 9866 ft | 248 kts | 243° |
| 2026-04-20 23:45 | 33.73789 | 135.94124 | 9533 ft | 248 kts | 243° |
| 2026-04-20 23:45 | 33.72966 | 135.92305 | 9183 ft | 248 kts | 243° |
| 2026-04-20 23:45 | 33.72142 | 135.90492 | 8839 ft | 248 kts | 244° |
| 2026-04-20 23:45 | 33.71366 | 135.88780 | 8516 ft | 248 kts | 245° |
| 2026-04-20 23:46 | 33.70582 | 135.87047 | 8201 ft | 248 kts | 245° |
| 2026-04-20 23:46 | 33.69815 | 135.85347 | 7886 ft | 247 kts | 245° |
| 2026-04-20 23:46 | 33.69070 | 135.83701 | 7575 ft | 248 kts | 246° |
| 2026-04-20 23:46 | 33.68280 | 135.81958 | 7235 ft | 254 kts | 246° |
| 2026-04-20 23:47 | 33.67500 | 135.80241 | 6993 ft | 250 kts | 246° |
| 2026-04-20 23:47 | 33.66736 | 135.78567 | 6994 ft | 250 kts | 246° |
| 2026-04-20 23:47 | 33.65957 | 135.76849 | 6832 ft | 253 kts | 246° |
| 2026-04-20 23:47 | 33.65168 | 135.75116 | 6499 ft | 254 kts | 247° |
| 2026-04-20 23:48 | 33.64383 | 135.73390 | 6173 ft | 253 kts | 247° |
| 2026-04-20 23:48 | 33.63598 | 135.71666 | 5861 ft | 253 kts | 246° |
| 2026-04-20 23:48 | 33.62822 | 135.69968 | 5541 ft | 253 kts | 246° |
| 2026-04-20 23:48 | 33.62038 | 135.68247 | 5220 ft | 253 kts | 246° |
| 2026-04-20 23:49 | 33.61217 | 135.66450 | 4889 ft | 253 kts | 246° |
| 2026-04-20 23:49 | 33.60410 | 135.64690 | 4550 ft | 254 kts | 247° |
| 2026-04-20 23:49 | 33.59611 | 135.62942 | 4216 ft | 255 kts | 247° |
| 2026-04-20 23:49 | 33.58823 | 135.61215 | 3887 ft | 256 kts | 246° |
| 2026-04-20 23:50 | 33.58045 | 135.59514 | 3704 ft | 249 kts | 247° |
| 2026-04-20 23:50 | 33.57278 | 135.57844 | 3622 ft | 240 kts | 246° |
| 2026-04-20 23:50 | 33.56531 | 135.56226 | 3531 ft | 234 kts | 248° |
| 2026-04-20 23:50 | 33.55801 | 135.54633 | 3437 ft | 228 kts | 247° |
| 2026-04-20 23:51 | 33.55094 | 135.53078 | 3242 ft | 227 kts | 248° |
| 2026-04-20 23:51 | 33.54366 | 135.51488 | 3020 ft | 225 kts | 248° |
| 2026-04-20 23:51 | 33.53734 | 135.49966 | 2806 ft | 218 kts | 256° |
| 2026-04-20 23:51 | 33.53521 | 135.48402 | 2621 ft | 199 kts | 285° |
| 2026-04-20 23:52 | 33.53949 | 135.47096 | 2593 ft | 178 kts | 309° |
| 2026-04-20 23:52 | 33.54636 | 135.46001 | 2599 ft | 176 kts | 311° |
| 2026-04-20 23:52 | 33.55306 | 135.44881 | 2547 ft | 170 kts | 309° |
| 2026-04-20 23:52 | 33.55905 | 135.43860 | 2428 ft | 162 kts | 310° |
| 2026-04-20 23:53 | 33.56489 | 135.42864 | 2297 ft | 156 kts | 310° |
| 2026-04-20 23:53 | 33.57136 | 135.41986 | 2169 ft | 145 kts | 325° |
| 2026-04-20 23:53 | 33.57956 | 135.41559 | 1997 ft | 141 kts | 340° |
| 2026-04-20 23:53 | 33.58768 | 135.41179 | 1828 ft | 133 kts | 341° |
| 2026-04-20 23:54 | 33.59534 | 135.40791 | 1652 ft | 128 kts | 338° |
| 2026-04-20 23:54 | 33.60282 | 135.40353 | 1527 ft | 133 kts | 336° |
| 2026-04-20 23:54 | 33.61057 | 135.39916 | 1349 ft | 132 kts | 339° |
| 2026-04-20 23:54 | 33.61852 | 135.39529 | 1200 ft | 133 kts | 338° |
| 2026-04-20 23:55 | 33.62645 | 135.39081 | 1027 ft | 136 kts | 337° |
| 2026-04-20 23:55 | 33.63453 | 135.38654 | 788 ft | 138 kts | 340° |
| 2026-04-20 23:55 | 33.64250 | 135.38242 | 597 ft | 133 kts | 339° |
| 2026-04-20 23:55 | 33.64996 | 135.37709 | 433 ft | 138 kts | 321° |
| 2026-04-20 23:56 | 33.65664 | 135.37003 | 266 ft | 137 kts | 326° |
| 2026-04-20 23:56 | 33.66186 | 135.36499 | 276 ft | 56 kts | 321° |
| 2026-04-20 23:56 | 33.66370 | 135.36240 | 299 ft | 29 kts | 245° |
| 2026-04-20 23:56 | 33.66307 | 135.36137 | 307 ft | 10 kts | 231° |
| 2026-04-20 23:57 | 33.66279 | 135.36093 | 311 ft | 3 kts | 233° |
| 2026-04-20 23:57 | 33.66278 | 135.36092 | 311 ft | 0 kts | 233° |